sensor_id;sensor_type;location;lat;lon;timestamp;temperature;humidity
60033;DHT22;45905;50.570;10.428;2022-10-30T00:01:12;11.80;99.90
60033;DHT22;45905;50.570;10.428;2022-10-30T00:03:39;11.80;99.90
60033;DHT22;45905;50.570;10.428;2022-10-30T00:06:07;11.80;99.90
60033;DHT22;45905;50.570;10.428;2022-10-30T00:08:34;11.80;99.90
60033;DHT22;45905;50.570;10.428;2022-10-30T00:11:11;11.70;99.90
60033;DHT22;45905;50.570;10.428;2022-10-30T00:13:41;11.70;99.90
60033;DHT22;45905;50.570;10.428;2022-10-30T00:16:10;11.70;99.90
60033;DHT22;45905;50.570;10.428;2022-10-30T00:18:37;11.70;99.90
60033;DHT22;45905;50.570;10.428;2022-10-30T00:21:09;11.70;99.90
60033;DHT22;45905;50.570;10.428;2022-10-30T00:23:48;11.70;99.90
60033;DHT22;45905;50.570;10.428;2022-10-30T00:26:17;11.70;99.90
60033;DHT22;45905;50.570;10.428;2022-10-30T00:28:53;11.70;99.90
60033;DHT22;45905;50.570;10.428;2022-10-30T00:31:22;11.60;99.90
60033;DHT22;45905;50.570;10.428;2022-10-30T00:33:51;11.60;99.90
60033;DHT22;45905;50.570;10.428;2022-10-30T00:36:20;11.60;99.90
60033;DHT22;45905;50.570;10.428;2022-10-30T00:38:48;11.60;99.90
60033;DHT22;45905;50.570;10.428;2022-10-30T00:41:21;11.60;99.90
60033;DHT22;45905;50.570;10.428;2022-10-30T00:43:49;11.60;99.90
60033;DHT22;45905;50.570;10.428;2022-10-30T00:46:23;11.50;99.90
60033;DHT22;45905;50.570;10.428;2022-10-30T00:49:14;11.60;99.90
60033;DHT22;45905;50.570;10.428;2022-10-30T00:51:50;11.50;99.90
60033;DHT22;45905;50.570;10.428;2022-10-30T00:54:21;11.50;99.90
60033;DHT22;45905;50.570;10.428;2022-10-30T00:56:50;11.50;99.90
60033;DHT22;45905;50.570;10.428;2022-10-30T00:59:23;11.50;99.90
60033;DHT22;45905;50.570;10.428;2022-10-30T01:01:54;11.50;99.90
60033;DHT22;45905;50.570;10.428;2022-10-30T01:04:23;11.40;99.90
60033;DHT22;45905;50.570;10.428;2022-10-30T01:06:56;11.40;99.90
60033;DHT22;45905;50.570;10.428;2022-10-30T01:09:25;11.50;99.90
60033;DHT22;45905;50.570;10.428;2022-10-30T01:11:52;11.40;99.90
60033;DHT22;45905;50.570;10.428;2022-10-30T01:14:20;11.40;99.90
60033;DHT22;45905;50.570;10.428;2022-10-30T01:20:23;11.30;99.90
60033;DHT22;45905;50.570;10.428;2022-10-30T01:35:01;11.30;99.90
60033;DHT22;45905;50.570;10.428;2022-10-30T01:37:55;11.20;99.90
60033;DHT22;45905;50.570;10.428;2022-10-30T01:40:28;11.20;99.90
60033;DHT22;45905;50.570;10.428;2022-10-30T01:42:56;11.30;99.90
60033;DHT22;45905;50.570;10.428;2022-10-30T01:55:02;11.40;99.90
60033;DHT22;45905;50.570;10.428;2022-10-30T01:57:57;11.40;99.90
60033;DHT22;45905;50.570;10.428;2022-10-30T02:00:29;11.40;99.90
60033;DHT22;45905;50.570;10.428;2022-10-30T02:02:56;11.40;99.90
60033;DHT22;45905;50.570;10.428;2022-10-30T02:05:40;11.40;99.90
60033;DHT22;45905;50.570;10.428;2022-10-30T02:08:09;11.30;99.90
60033;DHT22;45905;50.570;10.428;2022-10-30T02:10:39;11.30;99.90
60033;DHT22;45905;50.570;10.428;2022-10-30T02:13:09;11.30;99.90
60033;DHT22;45905;50.570;10.428;2022-10-30T02:15:37;11.30;99.90
60033;DHT22;45905;50.570;10.428;2022-10-30T02:18:04;11.30;99.90
60033;DHT22;45905;50.570;10.428;2022-10-30T02:20:32;11.30;99.90
60033;DHT22;45905;50.570;10.428;2022-10-30T02:22:59;11.20;99.90
60033;DHT22;45905;50.570;10.428;2022-10-30T02:25:31;11.30;99.90
60033;DHT22;45905;50.570;10.428;2022-10-30T02:27:59;11.20;99.90
60033;DHT22;45905;50.570;10.428;2022-10-30T02:30:28;11.20;99.90
60033;DHT22;45905;50.570;10.428;2022-10-30T02:32:55;11.20;99.90
60033;DHT22;45905;50.570;10.428;2022-10-30T02:35:23;11.10;99.90
60033;DHT22;45905;50.570;10.428;2022-10-30T02:37:51;11.20;99.90
60033;DHT22;45905;50.570;10.428;2022-10-30T02:40:18;11.00;99.90
60033;DHT22;45905;50.570;10.428;2022-10-30T02:42:51;11.00;99.90
60033;DHT22;45905;50.570;10.428;2022-10-30T02:45:19;11.00;99.90
60033;DHT22;45905;50.570;10.428;2022-10-30T02:47:47;11.00;99.90
60033;DHT22;45905;50.570;10.428;2022-10-30T02:50:14;10.90;99.90
60033;DHT22;45905;50.570;10.428;2022-10-30T02:52:41;11.00;99.90
60033;DHT22;45905;50.570;10.428;2022-10-30T02:55:08;11.00;99.90
60033;DHT22;45905;50.570;10.428;2022-10-30T02:57:37;11.00;99.90
60033;DHT22;45905;50.570;10.428;2022-10-30T03:00:05;11.00;99.90
60033;DHT22;45905;50.570;10.428;2022-10-30T03:02:33;11.10;99.90
60033;DHT22;45905;50.570;10.428;2022-10-30T03:05:00;11.10;99.90
60033;DHT22;45905;50.570;10.428;2022-10-30T03:07:27;11.10;99.90
60033;DHT22;45905;50.570;10.428;2022-10-30T03:09:54;11.00;99.90
60033;DHT22;45905;50.570;10.428;2022-10-30T03:12:21;11.10;99.90
60033;DHT22;45905;50.570;10.428;2022-10-30T03:14:50;11.20;99.90
60033;DHT22;45905;50.570;10.428;2022-10-30T03:17:18;11.10;99.90
60033;DHT22;45905;50.570;10.428;2022-10-30T03:19:46;11.10;99.90
60033;DHT22;45905;50.570;10.428;2022-10-30T03:22:13;11.00;99.90
60033;DHT22;45905;50.570;10.428;2022-10-30T03:24:40;11.10;99.90
60033;DHT22;45905;50.570;10.428;2022-10-30T03:27:07;11.10;99.90
60033;DHT22;45905;50.570;10.428;2022-10-30T03:29:34;11.10;99.90
60033;DHT22;45905;50.570;10.428;2022-10-30T03:32:03;11.10;99.90
60033;DHT22;45905;50.570;10.428;2022-10-30T03:34:34;11.10;99.90
60033;DHT22;45905;50.570;10.428;2022-10-30T03:37:05;11.10;99.90
60033;DHT22;45905;50.570;10.428;2022-10-30T03:39:32;11.10;99.90
60033;DHT22;45905;50.570;10.428;2022-10-30T03:42:01;11.10;99.90
60033;DHT22;45905;50.570;10.428;2022-10-30T03:44:29;11.00;99.90
60033;DHT22;45905;50.570;10.428;2022-10-30T03:46:56;11.00;99.90
60033;DHT22;45905;50.570;10.428;2022-10-30T03:49:34;10.90;99.90
60033;DHT22;45905;50.570;10.428;2022-10-30T03:52:07;11.00;99.90
60033;DHT22;45905;50.570;10.428;2022-10-30T03:54:34;11.00;99.90
60033;DHT22;45905;50.570;10.428;2022-10-30T03:57:01;11.10;99.90
60033;DHT22;45905;50.570;10.428;2022-10-30T03:59:36;11.00;99.90
60033;DHT22;45905;50.570;10.428;2022-10-30T04:02:25;11.00;99.90
60033;DHT22;45905;50.570;10.428;2022-10-30T04:04:52;11.00;99.90
60033;DHT22;45905;50.570;10.428;2022-10-30T04:07:19;11.00;99.90
60033;DHT22;45905;50.570;10.428;2022-10-30T04:09:46;11.00;99.90
60033;DHT22;45905;50.570;10.428;2022-10-30T04:12:14;11.10;99.90
60033;DHT22;45905;50.570;10.428;2022-10-30T04:14:41;11.10;99.90
60033;DHT22;45905;50.570;10.428;2022-10-30T04:17:08;11.10;99.90
60033;DHT22;45905;50.570;10.428;2022-10-30T04:19:36;11.10;99.90
60033;DHT22;45905;50.570;10.428;2022-10-30T04:22:03;10.90;99.90
60033;DHT22;45905;50.570;10.428;2022-10-30T04:24:31;11.10;99.90
60033;DHT22;45905;50.570;10.428;2022-10-30T04:26:59;11.10;99.90
60033;DHT22;45905;50.570;10.428;2022-10-30T04:29:26;11.10;99.90
60033;DHT22;45905;50.570;10.428;2022-10-30T04:31:53;11.10;99.90
60033;DHT22;45905;50.570;10.428;2022-10-30T04:34:20;11.10;99.90
60033;DHT22;45905;50.570;10.428;2022-10-30T04:36:47;11.10;99.90
60033;DHT22;45905;50.570;10.428;2022-10-30T04:39:15;11.10;99.90
60033;DHT22;45905;50.570;10.428;2022-10-30T04:41:42;11.10;99.90
60033;DHT22;45905;50.570;10.428;2022-10-30T04:44:16;11.10;99.90
60033;DHT22;45905;50.570;10.428;2022-10-30T04:46:43;10.90;99.90
60033;DHT22;45905;50.570;10.428;2022-10-30T04:49:10;11.00;99.90
60033;DHT22;45905;50.570;10.428;2022-10-30T04:51:37;11.10;99.90
60033;DHT22;45905;50.570;10.428;2022-10-30T04:54:06;11.10;99.90
60033;DHT22;45905;50.570;10.428;2022-10-30T04:56:34;11.10;99.90
60033;DHT22;45905;50.570;10.428;2022-10-30T04:59:02;11.00;99.90
60033;DHT22;45905;50.570;10.428;2022-10-30T05:01:30;11.00;99.90
60033;DHT22;45905;50.570;10.428;2022-10-30T05:03:57;11.00;99.90
60033;DHT22;45905;50.570;10.428;2022-10-30T05:06:27;11.00;99.90
60033;DHT22;45905;50.570;10.428;2022-10-30T05:08:56;11.00;99.90
60033;DHT22;45905;50.570;10.428;2022-10-30T05:11:31;11.00;99.90
60033;DHT22;45905;50.570;10.428;2022-10-30T05:13:58;11.00;99.90
60033;DHT22;45905;50.570;10.428;2022-10-30T05:16:25;11.10;99.90
60033;DHT22;45905;50.570;10.428;2022-10-30T05:18:54;11.10;99.90
60033;DHT22;45905;50.570;10.428;2022-10-30T05:21:21;11.10;99.90
60033;DHT22;45905;50.570;10.428;2022-10-30T05:23:48;11.10;99.90
60033;DHT22;45905;50.570;10.428;2022-10-30T05:26:16;11.10;99.90
60033;DHT22;45905;50.570;10.428;2022-10-30T05:28:43;11.10;99.90
60033;DHT22;45905;50.570;10.428;2022-10-30T05:31:10;11.00;99.90
60033;DHT22;45905;50.570;10.428;2022-10-30T05:33:56;10.90;99.90
60033;DHT22;45905;50.570;10.428;2022-10-30T05:36:25;11.00;99.90
60033;DHT22;45905;50.570;10.428;2022-10-30T05:38:52;11.00;99.90
60033;DHT22;45905;50.570;10.428;2022-10-30T05:41:30;11.00;99.90
60033;DHT22;45905;50.570;10.428;2022-10-30T05:43:57;11.00;99.90
60033;DHT22;45905;50.570;10.428;2022-10-30T05:46:25;11.00;99.90
60033;DHT22;45905;50.570;10.428;2022-10-30T05:48:53;11.00;99.90
60033;DHT22;45905;50.570;10.428;2022-10-30T05:51:22;11.00;99.90
60033;DHT22;45905;50.570;10.428;2022-10-30T05:53:53;10.90;99.90
60033;DHT22;45905;50.570;10.428;2022-10-30T05:56:24;10.90;99.90
60033;DHT22;45905;50.570;10.428;2022-10-30T05:58:51;10.80;99.90
60033;DHT22;45905;50.570;10.428;2022-10-30T06:01:18;10.80;99.90
60033;DHT22;45905;50.570;10.428;2022-10-30T06:03:49;10.80;99.90
60033;DHT22;45905;50.570;10.428;2022-10-30T06:06:16;10.80;99.90
60033;DHT22;45905;50.570;10.428;2022-10-30T06:08:44;10.70;99.90
60033;DHT22;45905;50.570;10.428;2022-10-30T06:11:29;10.70;99.90
60033;DHT22;45905;50.570;10.428;2022-10-30T06:13:58;10.70;99.90
60033;DHT22;45905;50.570;10.428;2022-10-30T06:16:39;10.70;99.90
60033;DHT22;45905;50.570;10.428;2022-10-30T06:19:11;10.60;99.90
60033;DHT22;45905;50.570;10.428;2022-10-30T06:21:45;10.60;99.90
60033;DHT22;45905;50.570;10.428;2022-10-30T06:24:17;10.60;99.90
60033;DHT22;45905;50.570;10.428;2022-10-30T06:27:07;10.60;99.90
60033;DHT22;45905;50.570;10.428;2022-10-30T06:29:34;10.60;99.90
60033;DHT22;45905;50.570;10.428;2022-10-30T06:32:01;10.60;99.90
60033;DHT22;45905;50.570;10.428;2022-10-30T06:34:32;10.60;99.90
60033;DHT22;45905;50.570;10.428;2022-10-30T06:37:02;10.50;99.90
60033;DHT22;45905;50.570;10.428;2022-10-30T06:39:30;10.50;99.90
60033;DHT22;45905;50.570;10.428;2022-10-30T06:42:26;10.50;99.90
60033;DHT22;45905;50.570;10.428;2022-10-30T06:45:05;10.50;99.90
60033;DHT22;45905;50.570;10.428;2022-10-30T06:47:34;10.50;99.90
60033;DHT22;45905;50.570;10.428;2022-10-30T06:50:03;10.50;99.90
60033;DHT22;45905;50.570;10.428;2022-10-30T06:52:31;10.50;99.90
60033;DHT22;45905;50.570;10.428;2022-10-30T06:54:59;10.40;99.90
60033;DHT22;45905;50.570;10.428;2022-10-30T06:57:58;10.40;99.90
60033;DHT22;45905;50.570;10.428;2022-10-30T07:00:44;10.40;99.90
60033;DHT22;45905;50.570;10.428;2022-10-30T07:03:32;10.40;99.90
60033;DHT22;45905;50.570;10.428;2022-10-30T07:06:00;10.30;99.90
60033;DHT22;45905;50.570;10.428;2022-10-30T07:08:27;10.30;99.90
60033;DHT22;45905;50.570;10.428;2022-10-30T07:10:56;10.30;99.90
60033;DHT22;45905;50.570;10.428;2022-10-30T07:13:47;10.30;99.90
60033;DHT22;45905;50.570;10.428;2022-10-30T07:16:32;10.40;99.90
60033;DHT22;45905;50.570;10.428;2022-10-30T07:19:00;10.30;99.90
60033;DHT22;45905;50.570;10.428;2022-10-30T07:21:31;10.40;99.90
60033;DHT22;45905;50.570;10.428;2022-10-30T07:23:58;10.40;99.90
60033;DHT22;45905;50.570;10.428;2022-10-30T07:26:48;10.40;99.90
60033;DHT22;45905;50.570;10.428;2022-10-30T07:29:47;10.20;99.90
60033;DHT22;45905;50.570;10.428;2022-10-30T07:32:26;10.40;99.90
60033;DHT22;45905;50.570;10.428;2022-10-30T07:35:13;10.40;99.90
60033;DHT22;45905;50.570;10.428;2022-10-30T07:38:05;10.40;99.90
60033;DHT22;45905;50.570;10.428;2022-10-30T07:40:41;10.40;99.90
60033;DHT22;45905;50.570;10.428;2022-10-30T07:43:35;10.40;99.90
60033;DHT22;45905;50.570;10.428;2022-10-30T07:46:20;10.50;99.90
60033;DHT22;45905;50.570;10.428;2022-10-30T07:49:17;10.50;99.90
60033;DHT22;45905;50.570;10.428;2022-10-30T07:51:48;10.50;99.90
60033;DHT22;45905;50.570;10.428;2022-10-30T07:54:16;10.60;99.90
60033;DHT22;45905;50.570;10.428;2022-10-30T07:56:43;10.60;99.90
60033;DHT22;45905;50.570;10.428;2022-10-30T07:59:28;10.70;99.90
60033;DHT22;45905;50.570;10.428;2022-10-30T08:02:21;10.70;99.90
60033;DHT22;45905;50.570;10.428;2022-10-30T08:05:09;10.80;99.90
60033;DHT22;45905;50.570;10.428;2022-10-30T08:07:54;10.80;99.90
60033;DHT22;45905;50.570;10.428;2022-10-30T08:10:22;10.80;99.90
60033;DHT22;45905;50.570;10.428;2022-10-30T08:12:49;10.80;99.90
60033;DHT22;45905;50.570;10.428;2022-10-30T08:15:16;10.90;99.90
60033;DHT22;45905;50.570;10.428;2022-10-30T08:17:46;10.90;99.90
60033;DHT22;45905;50.570;10.428;2022-10-30T08:20:17;11.00;99.90
60033;DHT22;45905;50.570;10.428;2022-10-30T08:22:52;11.00;99.90
60033;DHT22;45905;50.570;10.428;2022-10-30T08:25:25;11.10;99.90
60033;DHT22;45905;50.570;10.428;2022-10-30T08:27:59;11.00;99.90
60033;DHT22;45905;50.570;10.428;2022-10-30T08:30:35;11.10;99.90
60033;DHT22;45905;50.570;10.428;2022-10-30T08:33:06;11.10;99.90
60033;DHT22;45905;50.570;10.428;2022-10-30T08:36:00;11.10;99.90
60033;DHT22;45905;50.570;10.428;2022-10-30T08:38:28;11.20;99.90
60033;DHT22;45905;50.570;10.428;2022-10-30T08:41:08;11.20;99.90
60033;DHT22;45905;50.570;10.428;2022-10-30T08:43:42;11.30;99.90
60033;DHT22;45905;50.570;10.428;2022-10-30T08:46:09;11.30;99.90
60033;DHT22;45905;50.570;10.428;2022-10-30T08:48:36;11.30;99.90
60033;DHT22;45905;50.570;10.428;2022-10-30T08:51:04;11.40;99.90
60033;DHT22;45905;50.570;10.428;2022-10-30T08:53:36;11.40;99.90
60033;DHT22;45905;50.570;10.428;2022-10-30T08:56:08;11.50;99.90
60033;DHT22;45905;50.570;10.428;2022-10-30T08:58:53;11.50;99.90
60033;DHT22;45905;50.570;10.428;2022-10-30T09:01:21;11.60;99.90
60033;DHT22;45905;50.570;10.428;2022-10-30T09:04:07;11.60;99.90
60033;DHT22;45905;50.570;10.428;2022-10-30T09:06:52;11.60;99.90
60033;DHT22;45905;50.570;10.428;2022-10-30T09:09:22;11.70;99.90
60033;DHT22;45905;50.570;10.428;2022-10-30T09:11:54;11.70;99.90
60033;DHT22;45905;50.570;10.428;2022-10-30T09:14:21;11.80;99.90
60033;DHT22;45905;50.570;10.428;2022-10-30T09:16:48;11.90;99.90
60033;DHT22;45905;50.570;10.428;2022-10-30T09:19:18;11.90;99.90
60033;DHT22;45905;50.570;10.428;2022-10-30T09:21:47;12.10;99.90
60033;DHT22;45905;50.570;10.428;2022-10-30T09:24:14;12.10;99.90
60033;DHT22;45905;50.570;10.428;2022-10-30T09:26:50;12.20;99.90
60033;DHT22;45905;50.570;10.428;2022-10-30T09:29:22;12.30;99.90
60033;DHT22;45905;50.570;10.428;2022-10-30T09:32:18;12.30;99.90
60033;DHT22;45905;50.570;10.428;2022-10-30T09:34:54;12.40;99.90
60033;DHT22;45905;50.570;10.428;2022-10-30T09:37:24;12.50;99.90
60033;DHT22;45905;50.570;10.428;2022-10-30T09:39:58;12.60;99.90
60033;DHT22;45905;50.570;10.428;2022-10-30T09:42:55;12.80;99.90
60033;DHT22;45905;50.570;10.428;2022-10-30T09:45:43;12.90;99.90
60033;DHT22;45905;50.570;10.428;2022-10-30T09:48:43;13.00;99.90
60033;DHT22;45905;50.570;10.428;2022-10-30T09:51:50;13.10;99.90
60033;DHT22;45905;50.570;10.428;2022-10-30T09:54:40;13.10;99.90
60033;DHT22;45905;50.570;10.428;2022-10-30T10:07:37;13.60;99.90
60033;DHT22;45905;50.570;10.428;2022-10-30T10:10:32;13.70;99.90
60033;DHT22;45905;50.570;10.428;2022-10-30T10:13:31;13.80;99.90
60033;DHT22;45905;50.570;10.428;2022-10-30T10:16:25;13.90;99.90
60033;DHT22;45905;50.570;10.428;2022-10-30T10:19:15;14.00;99.90
60033;DHT22;45905;50.570;10.428;2022-10-30T10:21:56;14.20;99.90
60033;DHT22;45905;50.570;10.428;2022-10-30T10:24:29;14.40;99.90
60033;DHT22;45905;50.570;10.428;2022-10-30T10:36:14;15.00;99.90
60033;DHT22;45905;50.570;10.428;2022-10-30T10:51:04;15.40;99.90
60033;DHT22;45905;50.570;10.428;2022-10-30T10:56:52;15.70;99.90
60033;DHT22;45905;50.570;10.428;2022-10-30T10:59:35;15.70;99.90
60033;DHT22;45905;50.570;10.428;2022-10-30T11:07:49;16.00;99.90
60033;DHT22;45905;50.570;10.428;2022-10-30T11:10:18;16.10;99.90
60033;DHT22;45905;50.570;10.428;2022-10-30T11:12:46;16.20;99.90
60033;DHT22;45905;50.570;10.428;2022-10-30T11:15:36;16.40;99.90
60033;DHT22;45905;50.570;10.428;2022-10-30T11:18:24;16.50;99.90
60033;DHT22;45905;50.570;10.428;2022-10-30T11:21:04;16.70;99.90
60033;DHT22;45905;50.570;10.428;2022-10-30T11:23:42;16.80;99.90
60033;DHT22;45905;50.570;10.428;2022-10-30T11:31:24;17.10;99.90
60033;DHT22;45905;50.570;10.428;2022-10-30T11:33:54;17.20;99.90
60033;DHT22;45905;50.570;10.428;2022-10-30T11:36:23;17.30;99.90
60033;DHT22;45905;50.570;10.428;2022-10-30T11:38:53;17.40;99.90
60033;DHT22;45905;50.570;10.428;2022-10-30T11:41:34;17.50;99.90
60033;DHT22;45905;50.570;10.428;2022-10-30T11:44:01;17.60;99.90
60033;DHT22;45905;50.570;10.428;2022-10-30T11:46:31;17.80;99.90
60033;DHT22;45905;50.570;10.428;2022-10-30T11:49:01;17.90;99.90
60033;DHT22;45905;50.570;10.428;2022-10-30T11:51:46;17.90;99.90
60033;DHT22;45905;50.570;10.428;2022-10-30T11:54:19;17.90;99.90
60033;DHT22;45905;50.570;10.428;2022-10-30T11:56:48;18.00;99.90
60033;DHT22;45905;50.570;10.428;2022-10-30T11:59:21;18.00;99.90
60033;DHT22;45905;50.570;10.428;2022-10-30T12:01:58;18.10;99.90
60033;DHT22;45905;50.570;10.428;2022-10-30T12:04:29;18.10;99.90
60033;DHT22;45905;50.570;10.428;2022-10-30T12:09:48;18.20;99.90
60033;DHT22;45905;50.570;10.428;2022-10-30T12:12:23;18.30;99.90
60033;DHT22;45905;50.570;10.428;2022-10-30T12:14:51;18.40;99.90
60033;DHT22;45905;50.570;10.428;2022-10-30T12:17:20;18.50;99.90
60033;DHT22;45905;50.570;10.428;2022-10-30T12:19:50;18.60;99.90
60033;DHT22;45905;50.570;10.428;2022-10-30T12:22:33;18.70;99.80
60033;DHT22;45905;50.570;10.428;2022-10-30T12:28:05;18.90;99.20
60033;DHT22;45905;50.570;10.428;2022-10-30T12:31:03;19.00;99.30
60033;DHT22;45905;50.570;10.428;2022-10-30T12:33:46;19.10;99.10
60033;DHT22;45905;50.570;10.428;2022-10-30T12:36:28;19.20;99.30
60033;DHT22;45905;50.570;10.428;2022-10-30T12:39:08;19.30;99.90
60033;DHT22;45905;50.570;10.428;2022-10-30T12:42:01;19.40;98.20
60033;DHT22;45905;50.570;10.428;2022-10-30T12:44:36;19.40;99.00
60033;DHT22;45905;50.570;10.428;2022-10-30T12:47:18;19.50;98.70
60033;DHT22;45905;50.570;10.428;2022-10-30T12:50:24;19.50;99.00
60033;DHT22;45905;50.570;10.428;2022-10-30T12:53:00;19.50;99.10
60033;DHT22;45905;50.570;10.428;2022-10-30T12:55:35;19.60;98.30
60033;DHT22;45905;50.570;10.428;2022-10-30T12:58:20;19.60;98.10
60033;DHT22;45905;50.570;10.428;2022-10-30T13:04:25;19.70;97.50
60033;DHT22;45905;50.570;10.428;2022-10-30T13:07:11;19.80;97.70
60033;DHT22;45905;50.570;10.428;2022-10-30T13:13:24;20.00;96.90
60033;DHT22;45905;50.570;10.428;2022-10-30T13:15:57;20.10;96.90
60033;DHT22;45905;50.570;10.428;2022-10-30T13:18:28;20.10;97.40
60033;DHT22;45905;50.570;10.428;2022-10-30T13:21:10;20.20;96.90
60033;DHT22;45905;50.570;10.428;2022-10-30T13:24:02;20.20;96.40
60033;DHT22;45905;50.570;10.428;2022-10-30T13:39:12;20.50;95.10
60033;DHT22;45905;50.570;10.428;2022-10-30T13:50:38;20.80;96.70
60033;DHT22;45905;50.570;10.428;2022-10-30T13:53:29;20.90;96.00
60033;DHT22;45905;50.570;10.428;2022-10-30T13:56:00;20.90;95.80
60033;DHT22;45905;50.570;10.428;2022-10-30T14:02:10;21.10;95.60
60033;DHT22;45905;50.570;10.428;2022-10-30T14:04:57;21.10;94.90
60033;DHT22;45905;50.570;10.428;2022-10-30T14:07:42;21.20;95.70
60033;DHT22;45905;50.570;10.428;2022-10-30T14:13:16;21.30;95.30
60033;DHT22;45905;50.570;10.428;2022-10-30T14:16:10;21.30;95.70
60033;DHT22;45905;50.570;10.428;2022-10-30T14:19:03;21.30;94.90
60033;DHT22;45905;50.570;10.428;2022-10-30T14:21:49;21.30;94.50
60033;DHT22;45905;50.570;10.428;2022-10-30T14:24:25;21.40;94.90
60033;DHT22;45905;50.570;10.428;2022-10-30T14:40:31;21.30;95.20
60033;DHT22;45905;50.570;10.428;2022-10-30T14:43:23;21.30;94.60
60033;DHT22;45905;50.570;10.428;2022-10-30T14:46:02;21.20;95.20
60033;DHT22;45905;50.570;10.428;2022-10-30T14:52:06;21.10;95.40
60033;DHT22;45905;50.570;10.428;2022-10-30T14:55:32;21.10;95.60
60033;DHT22;45905;50.570;10.428;2022-10-30T15:00:40;21.00;96.20
60033;DHT22;45905;50.570;10.428;2022-10-30T15:13:55;20.70;96.70
60033;DHT22;45905;50.570;10.428;2022-10-30T15:16:26;20.70;96.60
60033;DHT22;45905;50.570;10.428;2022-10-30T15:19:02;20.60;96.50
60033;DHT22;45905;50.570;10.428;2022-10-30T15:21:38;20.50;96.50
60033;DHT22;45905;50.570;10.428;2022-10-30T15:24:16;20.30;96.20
60033;DHT22;45905;50.570;10.428;2022-10-30T15:26:57;20.30;96.40
60033;DHT22;45905;50.570;10.428;2022-10-30T15:29:29;20.20;96.50
60033;DHT22;45905;50.570;10.428;2022-10-30T15:32:02;20.00;96.40
60033;DHT22;45905;50.570;10.428;2022-10-30T15:34:31;20.00;96.20
60033;DHT22;45905;50.570;10.428;2022-10-30T15:36:59;19.80;96.10
60033;DHT22;45905;50.570;10.428;2022-10-30T15:39:36;19.80;96.10
60033;DHT22;45905;50.570;10.428;2022-10-30T15:42:04;19.60;96.30
60033;DHT22;45905;50.570;10.428;2022-10-30T15:44:34;19.50;96.30
60033;DHT22;45905;50.570;10.428;2022-10-30T15:47:04;19.40;96.10
60033;DHT22;45905;50.570;10.428;2022-10-30T15:49:50;19.30;96.20
60033;DHT22;45905;50.570;10.428;2022-10-30T15:52:38;19.20;96.30
60033;DHT22;45905;50.570;10.428;2022-10-30T15:55:13;19.10;96.20
60033;DHT22;45905;50.570;10.428;2022-10-30T15:57:49;18.90;96.10
60033;DHT22;45905;50.570;10.428;2022-10-30T16:00:35;18.80;96.30
60033;DHT22;45905;50.570;10.428;2022-10-30T16:03:15;18.70;96.20
60033;DHT22;45905;50.570;10.428;2022-10-30T16:05:43;18.60;96.10
60033;DHT22;45905;50.570;10.428;2022-10-30T16:08:19;18.50;96.00
60033;DHT22;45905;50.570;10.428;2022-10-30T16:10:51;18.30;96.10
60033;DHT22;45905;50.570;10.428;2022-10-30T16:13:24;18.20;96.10
60033;DHT22;45905;50.570;10.428;2022-10-30T16:15:55;18.10;96.20
60033;DHT22;45905;50.570;10.428;2022-10-30T16:18:32;18.00;96.20
60033;DHT22;45905;50.570;10.428;2022-10-30T16:21:05;17.90;96.20
60033;DHT22;45905;50.570;10.428;2022-10-30T16:23:45;17.70;96.30
60033;DHT22;45905;50.570;10.428;2022-10-30T16:26:35;17.60;96.40
60033;DHT22;45905;50.570;10.428;2022-10-30T16:31:41;17.40;96.60
60033;DHT22;45905;50.570;10.428;2022-10-30T16:34:12;17.30;96.80
60033;DHT22;45905;50.570;10.428;2022-10-30T16:36:48;17.20;96.80
60033;DHT22;45905;50.570;10.428;2022-10-30T16:39:18;17.10;97.00
60033;DHT22;45905;50.570;10.428;2022-10-30T16:41:47;17.00;97.20
60033;DHT22;45905;50.570;10.428;2022-10-30T16:44:26;17.00;97.30
60033;DHT22;45905;50.570;10.428;2022-10-30T16:49:25;16.90;97.40
60033;DHT22;45905;50.570;10.428;2022-10-30T16:52:14;16.80;97.40
60033;DHT22;45905;50.570;10.428;2022-10-30T16:54:47;16.70;97.50
60033;DHT22;45905;50.570;10.428;2022-10-30T16:57:27;16.70;97.60
60033;DHT22;45905;50.570;10.428;2022-10-30T16:59:59;16.60;97.60
60033;DHT22;45905;50.570;10.428;2022-10-30T17:02:33;16.60;97.70
60033;DHT22;45905;50.570;10.428;2022-10-30T17:05:09;16.50;97.60
60033;DHT22;45905;50.570;10.428;2022-10-30T17:10:53;16.40;97.90
60033;DHT22;45905;50.570;10.428;2022-10-30T17:15:57;16.30;98.00
60033;DHT22;45905;50.570;10.428;2022-10-30T17:18:29;16.20;98.00
60033;DHT22;45905;50.570;10.428;2022-10-30T17:21:08;16.10;98.10
60033;DHT22;45905;50.570;10.428;2022-10-30T17:23:47;16.10;98.30
60033;DHT22;45905;50.570;10.428;2022-10-30T17:26:16;16.00;98.40
60033;DHT22;45905;50.570;10.428;2022-10-30T17:28:45;15.90;98.50
60033;DHT22;45905;50.570;10.428;2022-10-30T17:34:33;15.90;98.60
60033;DHT22;45905;50.570;10.428;2022-10-30T17:36:43;15.80;98.60
60033;DHT22;45905;50.570;10.428;2022-10-30T17:39:11;15.70;98.70
60033;DHT22;45905;50.570;10.428;2022-10-30T17:41:38;15.70;98.80
60033;DHT22;45905;50.570;10.428;2022-10-30T17:44:17;15.60;98.70
60033;DHT22;45905;50.570;10.428;2022-10-30T17:46:46;15.50;98.60
60033;DHT22;45905;50.570;10.428;2022-10-30T17:49:30;15.50;98.90
60033;DHT22;45905;50.570;10.428;2022-10-30T17:51:58;15.40;98.80
60033;DHT22;45905;50.570;10.428;2022-10-30T17:54:25;15.40;99.20
60033;DHT22;45905;50.570;10.428;2022-10-30T17:56:53;15.30;98.90
60033;DHT22;45905;50.570;10.428;2022-10-30T17:59:20;15.30;99.00
60033;DHT22;45905;50.570;10.428;2022-10-30T18:01:47;15.20;99.00
60033;DHT22;45905;50.570;10.428;2022-10-30T18:04:16;15.20;99.00
60033;DHT22;45905;50.570;10.428;2022-10-30T18:06:46;15.10;99.00
60033;DHT22;45905;50.570;10.428;2022-10-30T18:09:14;15.10;99.20
60033;DHT22;45905;50.570;10.428;2022-10-30T18:11:41;15.00;99.20
60033;DHT22;45905;50.570;10.428;2022-10-30T18:14:09;15.00;99.30
60033;DHT22;45905;50.570;10.428;2022-10-30T18:16:37;14.90;99.70
60033;DHT22;45905;50.570;10.428;2022-10-30T18:19:09;14.90;99.70
60033;DHT22;45905;50.570;10.428;2022-10-30T18:21:36;14.80;99.40
60033;DHT22;45905;50.570;10.428;2022-10-30T18:24:11;14.80;99.40
60033;DHT22;45905;50.570;10.428;2022-10-30T18:26:38;14.70;99.30
60033;DHT22;45905;50.570;10.428;2022-10-30T18:29:07;14.70;99.50
60033;DHT22;45905;50.570;10.428;2022-10-30T18:31:35;14.70;99.70
60033;DHT22;45905;50.570;10.428;2022-10-30T18:34:05;14.60;99.80